createdAt,value
2019-05-07T00:01:51.227Z,9.87
2019-05-07T00:04:18.878Z,9.90
2019-05-07T00:06:48.453Z,9.50
2019-05-07T00:09:17.737Z,9.67
2019-05-07T00:11:46.970Z,11.03
2019-05-07T00:14:16.269Z,9.20
2019-05-07T00:16:45.580Z,9.40
2019-05-07T00:19:15.079Z,10.23
2019-05-07T00:21:44.407Z,11.07
2019-05-07T00:24:13.717Z,10.60
2019-05-07T00:26:43.770Z,9.60
2019-05-07T00:29:13.099Z,10.30
2019-05-07T00:31:42.426Z,10.07
2019-05-07T00:34:12.719Z,10.57
2019-05-07T00:37:06.611Z,10.80
2019-05-07T00:40:02.818Z,10.47
2019-05-07T00:42:54.013Z,9.43
2019-05-07T00:45:29.817Z,9.80
2019-05-07T00:47:59.183Z,8.97
2019-05-07T00:50:33.123Z,9.00
2019-05-07T00:53:02.546Z,9.47
2019-05-07T00:55:32.685Z,10.43
2019-05-07T00:58:02.462Z,9.23
2019-05-07T01:00:33.261Z,8.30
2019-05-07T01:03:03.139Z,9.73
2019-05-07T01:05:32.695Z,10.73
2019-05-07T01:08:02.660Z,11.77
2019-05-07T01:10:33.012Z,9.40
2019-05-07T01:13:02.838Z,8.03
2019-05-07T01:15:34.706Z,8.43
2019-05-07T01:18:03.504Z,9.37
2019-05-07T01:20:33.049Z,8.90
2019-05-07T01:23:02.719Z,8.47
2019-05-07T01:25:32.888Z,8.20
2019-05-07T01:28:02.721Z,8.07
2019-05-07T01:30:32.637Z,9.13
2019-05-07T01:33:29.873Z,8.57
2019-05-07T01:36:05.517Z,9.70
2019-05-07T01:38:34.902Z,8.33
2019-05-07T01:41:04.206Z,8.80
2019-05-07T01:43:33.494Z,8.87
2019-05-07T01:46:03.262Z,7.80
2019-05-07T01:48:32.709Z,8.43
2019-05-07T01:51:03.475Z,8.90
2019-05-07T01:53:32.925Z,8.07
2019-05-07T01:56:03.266Z,9.67
2019-05-07T01:58:33.289Z,8.13
2019-05-07T02:01:03.012Z,8.30
2019-05-07T02:03:49.792Z,9.17
2019-05-07T02:06:27.000Z,8.77
2019-05-07T02:09:14.745Z,8.90
2019-05-07T02:11:45.564Z,8.30
2019-05-07T02:14:14.903Z,8.80
2019-05-07T02:16:44.220Z,7.70
2019-05-07T02:19:13.550Z,8.53
2019-05-07T02:21:42.917Z,8.63
2019-05-07T02:24:12.607Z,7.83
2019-05-07T02:26:42.711Z,8.40
2019-05-07T02:29:12.375Z,7.23
2019-05-07T02:31:44.058Z,10.20
2019-05-07T02:34:14.045Z,8.20
2019-05-07T02:36:43.714Z,8.43
2019-05-07T02:39:20.134Z,8.67
2019-05-07T02:41:50.421Z,8.20
2019-05-07T02:44:19.734Z,8.67
2019-05-07T02:47:08.662Z,7.83
2019-05-07T02:49:46.860Z,7.20
2019-05-07T02:52:23.060Z,8.37
2019-05-07T02:55:14.469Z,9.77
2019-05-07T02:57:44.016Z,7.50
2019-05-07T03:00:16.800Z,7.87
2019-05-07T03:02:45.073Z,9.40
2019-05-07T03:05:14.365Z,7.90
2019-05-07T03:07:43.650Z,8.10
2019-05-07T03:10:13.873Z,9.50
2019-05-07T03:12:43.344Z,8.67
2019-05-07T03:15:13.191Z,7.83
2019-05-07T03:17:43.138Z,8.80
2019-05-07T03:20:16.354Z,8.13
2019-05-07T03:22:45.585Z,9.57
2019-05-07T03:25:23.106Z,7.93
2019-05-07T03:27:53.616Z,8.90
2019-05-07T03:30:38.626Z,8.83
2019-05-07T03:33:18.325Z,7.97
2019-05-07T03:35:56.075Z,8.30
2019-05-07T03:38:22.862Z,8.10
2019-05-07T03:40:53.173Z,7.73
2019-05-07T03:43:24.308Z,7.93
2019-05-07T03:46:03.630Z,8.50
2019-05-07T03:48:33.691Z,9.40
2019-05-07T03:51:03.635Z,7.33
2019-05-07T03:53:34.220Z,9.23
2019-05-07T03:56:04.401Z,8.50
2019-05-07T03:58:34.313Z,7.67
2019-05-07T04:01:04.489Z,7.90
2019-05-07T04:03:34.611Z,8.70
2019-05-07T04:06:04.344Z,8.07
2019-05-07T04:08:34.022Z,8.17
2019-05-07T04:11:03.986Z,9.07
2019-05-07T04:13:33.993Z,8.40
2019-05-07T04:16:04.292Z,8.37
2019-05-07T04:18:34.042Z,8.27
2019-05-07T04:21:04.253Z,8.13
2019-05-07T04:23:34.351Z,7.67
2019-05-07T04:26:17.074Z,7.70
2019-05-07T04:28:54.532Z,6.80
2019-05-07T04:31:25.513Z,7.70
2019-05-07T04:33:56.842Z,6.93
2019-05-07T04:36:28.495Z,7.70
2019-05-07T04:38:57.786Z,8.40
2019-05-07T04:41:26.997Z,8.37
2019-05-07T04:43:56.289Z,8.77
2019-05-07T04:46:25.639Z,9.17
2019-05-07T04:48:55.026Z,8.33
2019-05-07T04:51:34.930Z,9.50
2019-05-07T04:54:04.224Z,8.93
2019-05-07T04:56:33.824Z,8.07
2019-05-07T04:59:03.851Z,8.60
2019-05-07T05:01:35.796Z,8.23
2019-05-07T05:04:22.007Z,10.97
2019-05-07T05:06:36.327Z,8.77
2019-05-07T05:09:07.053Z,7.93
2019-05-07T05:11:36.434Z,9.10
2019-05-07T05:14:07.883Z,7.97
2019-05-07T05:16:36.736Z,10.17
2019-05-07T05:19:06.053Z,8.73
2019-05-07T05:21:46.518Z,9.90
2019-05-07T05:24:32.795Z,8.80
2019-05-07T05:27:02.562Z,8.53
2019-05-07T05:29:33.509Z,9.17
2019-05-07T05:32:05.560Z,9.57
2019-05-07T05:34:35.367Z,10.27
2019-05-07T05:37:05.531Z,9.13
2019-05-07T05:39:34.864Z,9.93
2019-05-07T05:42:12.237Z,8.40
2019-05-07T05:44:41.896Z,9.63
2019-05-07T05:47:11.920Z,8.83
2019-05-07T05:49:42.874Z,8.70
2019-05-07T05:52:28.800Z,9.80
2019-05-07T05:55:17.082Z,8.73
2019-05-07T05:58:12.113Z,9.37
2019-05-07T06:01:05.784Z,9.00
2019-05-07T06:04:03.076Z,9.77
2019-05-07T06:06:36.561Z,9.20
2019-05-07T06:09:26.568Z,10.27
2019-05-07T06:12:08.890Z,10.07
2019-05-07T06:14:44.352Z,9.43
2019-05-07T06:17:29.405Z,8.93
2019-05-07T06:20:08.736Z,9.17
2019-05-07T06:22:48.812Z,8.50
2019-05-07T06:25:24.606Z,9.53
2019-05-07T06:27:52.639Z,8.00
2019-05-07T06:30:22.848Z,10.50
2019-05-07T06:32:52.466Z,9.77
2019-05-07T06:35:23.044Z,9.60
2019-05-07T06:37:52.512Z,9.80
2019-05-07T06:40:39.569Z,9.43
2019-05-07T06:43:27.824Z,9.33
2019-05-07T06:45:58.262Z,11.67
2019-05-07T06:48:38.881Z,10.07
2019-05-07T06:50:58.833Z,10.87
2019-05-07T06:53:29.327Z,9.90
2019-05-07T06:55:59.566Z,11.83
2019-05-07T06:58:35.110Z,10.20
2019-05-07T07:01:23.902Z,9.93
2019-05-07T07:04:17.928Z,9.40
2019-05-07T07:07:25.645Z,9.40
2019-05-07T07:09:48.313Z,9.83
2019-05-07T07:12:24.023Z,9.70
2019-05-07T07:14:52.250Z,9.10
2019-05-07T07:17:22.322Z,9.17
2019-05-07T07:19:52.312Z,9.90
2019-05-07T07:22:22.284Z,9.00
2019-05-07T07:24:53.147Z,9.80
2019-05-07T07:27:22.858Z,9.43
2019-05-07T07:30:14.015Z,9.50
2019-05-07T07:32:45.243Z,9.30
2019-05-07T07:35:15.752Z,8.27
2019-05-07T07:37:45.054Z,11.10
2019-05-07T07:40:37.239Z,9.50
2019-05-07T07:43:07.274Z,11.10
2019-05-07T07:45:36.766Z,10.00
2019-05-07T07:48:06.248Z,8.80
2019-05-07T07:50:35.578Z,10.57
2019-05-07T07:53:04.891Z,8.43
2019-05-07T07:55:45.627Z,8.97
2019-05-07T07:58:34.297Z,4.80
2019-05-07T08:01:22.658Z,10.47
2019-05-07T08:03:52.341Z,10.07
2019-05-07T08:06:22.538Z,10.83
2019-05-07T08:08:52.935Z,12.57
2019-05-07T08:11:22.520Z,7.50
2019-05-07T08:13:52.876Z,8.10
2019-05-07T08:16:22.400Z,7.20
2019-05-07T08:18:52.207Z,7.93
2019-05-07T08:21:26.575Z,7.13
2019-05-07T08:23:56.898Z,7.70
2019-05-07T08:26:26.381Z,7.70
2019-05-07T08:28:55.813Z,8.87
2019-05-07T08:31:47.167Z,8.77
2019-05-07T08:34:32.620Z,9.00
2019-05-07T08:37:02.113Z,7.70
2019-05-07T08:39:32.613Z,8.10
2019-05-07T08:42:02.348Z,6.53
2019-05-07T08:44:42.866Z,7.50
2019-05-07T08:47:22.821Z,8.37
2019-05-07T08:49:52.337Z,7.50
2019-05-07T08:52:22.373Z,7.90
2019-05-07T08:54:53.048Z,7.90
2019-05-07T08:57:22.844Z,6.50
2019-05-07T09:00:00.228Z,7.37
2019-05-07T09:02:23.304Z,7.83
2019-05-07T09:04:52.634Z,7.63
2019-05-07T09:07:22.130Z,6.40
2019-05-07T09:09:52.275Z,7.10
2019-05-07T09:12:22.953Z,6.90
2019-05-07T09:14:53.032Z,9.00
2019-05-07T09:17:22.983Z,6.90
2019-05-07T09:19:54.917Z,8.50
2019-05-07T09:22:23.718Z,6.83
2019-05-07T09:24:53.024Z,8.37
2019-05-07T09:27:42.740Z,6.73
2019-05-07T09:30:49.221Z,7.90
2019-05-07T09:33:29.289Z,6.43
2019-05-07T09:35:58.978Z,8.70
2019-05-07T09:38:28.792Z,6.93
2019-05-07T09:40:58.066Z,6.27
2019-05-07T09:43:27.359Z,6.40
2019-05-07T09:45:56.706Z,6.80
2019-05-07T09:48:25.999Z,6.93
2019-05-07T09:50:55.322Z,10.70
2019-05-07T09:53:24.790Z,7.30
2019-05-07T09:55:54.086Z,7.57
2019-05-07T09:58:35.554Z,6.90
2019-05-07T10:00:55.127Z,6.23
2019-05-07T10:03:24.656Z,5.90
2019-05-07T10:05:54.253Z,6.60
2019-05-07T10:08:23.477Z,8.90
2019-05-07T10:10:53.276Z,7.20
2019-05-07T10:13:42.579Z,6.70
2019-05-07T10:16:12.848Z,6.93
2019-05-07T10:18:42.711Z,7.30
2019-05-07T10:21:13.511Z,6.10
2019-05-07T10:23:43.593Z,6.60
2019-05-07T10:26:13.070Z,5.47
2019-05-07T10:28:42.588Z,7.07
2019-05-07T10:31:12.095Z,8.40
2019-05-07T10:33:42.226Z,9.33
2019-05-07T10:36:12.727Z,7.13
2019-05-07T10:38:42.203Z,7.50
2019-05-07T10:41:12.187Z,8.70
2019-05-07T10:43:42.851Z,8.27
2019-05-07T10:46:34.346Z,8.13
2019-05-07T10:49:25.517Z,7.83
2019-05-07T10:51:54.842Z,8.03
2019-05-07T10:54:24.162Z,8.60
2019-05-07T10:56:53.462Z,9.67
2019-05-07T10:59:22.795Z,7.83
2019-05-07T11:02:07.138Z,7.30
2019-05-07T11:04:42.669Z,8.90
2019-05-07T11:07:07.533Z,7.10
2019-05-07T11:09:36.953Z,9.00
2019-05-07T11:12:06.286Z,6.53
2019-05-07T11:14:36.074Z,6.83
2019-05-07T11:17:15.026Z,8.13
2019-05-07T11:19:44.719Z,8.10
2019-05-07T11:22:14.127Z,10.07
2019-05-07T11:24:43.465Z,10.57
2019-05-07T11:27:12.696Z,7.67
2019-05-07T11:29:42.955Z,8.83
2019-05-07T11:32:12.697Z,8.53
2019-05-07T11:34:44.454Z,5.80
2019-05-07T11:37:13.784Z,5.40
2019-05-07T11:39:43.104Z,5.63
2019-05-07T11:42:34.198Z,7.30
2019-05-07T11:45:03.645Z,5.67
2019-05-07T11:47:33.928Z,7.77
2019-05-07T11:50:18.800Z,6.87
2019-05-07T11:52:57.906Z,7.40
2019-05-07T11:55:27.217Z,15.03
2019-05-07T11:57:56.709Z,22.70
2019-05-07T12:00:37.326Z,10.57
2019-05-07T12:03:06.726Z,10.33
2019-05-07T12:05:35.952Z,9.87
2019-05-07T12:08:05.406Z,9.20
2019-05-07T12:10:34.724Z,8.40
2019-05-07T12:13:04.032Z,8.40
2019-05-07T12:15:33.379Z,7.20
2019-05-07T12:18:03.170Z,7.67
2019-05-07T12:20:32.656Z,8.30
2019-05-07T12:23:02.910Z,8.20
2019-05-07T12:25:32.391Z,7.63
2019-05-07T12:28:02.391Z,7.70
2019-05-07T12:31:06.302Z,7.23
2019-05-07T12:33:52.179Z,7.30
2019-05-07T12:36:22.765Z,7.40
2019-05-07T12:38:53.248Z,9.20
2019-05-07T12:41:33.921Z,8.10
2019-05-07T12:44:07.165Z,8.27
2019-05-07T12:46:37.417Z,7.87
2019-05-07T12:49:07.166Z,6.67
2019-05-07T12:52:02.144Z,8.20
2019-05-07T12:54:36.787Z,7.37
2019-05-07T12:57:06.187Z,7.47
2019-05-07T12:59:35.476Z,8.00
2019-05-07T13:02:26.851Z,7.80
2019-05-07T13:04:42.079Z,7.57
2019-05-07T13:07:33.359Z,6.40
2019-05-07T13:10:02.796Z,8.50
2019-05-07T13:12:32.304Z,7.37
2019-05-07T13:15:02.958Z,8.77
2019-05-07T13:17:33.747Z,7.77
2019-05-07T13:20:03.337Z,8.73
2019-05-07T13:22:32.946Z,7.47
2019-05-07T13:25:02.531Z,6.47
2019-05-07T13:27:32.093Z,6.90
2019-05-07T13:30:02.632Z,6.00
2019-05-07T13:32:33.281Z,7.33
2019-05-07T13:35:03.071Z,6.40
2019-05-07T13:37:34.401Z,7.00
2019-05-07T13:40:35.000Z,8.17
2019-05-07T13:43:16.997Z,6.90
2019-05-07T13:46:02.078Z,7.40
2019-05-07T13:48:31.745Z,9.03
2019-05-07T13:51:01.800Z,6.33
2019-05-07T13:53:32.242Z,7.10
2019-05-07T13:56:02.330Z,6.87
2019-05-07T13:58:32.902Z,5.10
2019-05-07T14:01:19.254Z,6.33
2019-05-07T14:03:48.559Z,5.40
2019-05-07T14:06:36.929Z,5.17
2019-05-07T14:09:12.724Z,6.03
2019-05-07T14:11:42.391Z,5.90
2019-05-07T14:14:12.337Z,5.70
2019-05-07T14:16:44.718Z,5.83
2019-05-07T14:19:13.095Z,5.47
2019-05-07T14:21:42.468Z,5.50
2019-05-07T14:24:14.595Z,6.03
2019-05-07T14:26:42.823Z,7.10
2019-05-07T14:29:13.061Z,7.97
2019-05-07T14:31:42.666Z,7.43
2019-05-07T14:34:34.739Z,6.47
2019-05-07T14:37:22.102Z,7.03
2019-05-07T14:39:51.886Z,6.07
2019-05-07T14:42:32.965Z,7.20
2019-05-07T14:45:02.318Z,5.70
2019-05-07T14:47:31.676Z,7.50
2019-05-07T14:50:02.195Z,6.03
2019-05-07T14:52:33.857Z,6.10
2019-05-07T14:55:05.063Z,6.17
2019-05-07T14:57:34.149Z,7.30
2019-05-07T15:00:03.567Z,7.03
2019-05-07T15:02:32.802Z,6.77
2019-05-07T15:05:02.788Z,8.03
2019-05-07T15:07:32.746Z,5.60
2019-05-07T15:10:02.411Z,7.63
2019-05-07T15:12:33.019Z,7.47
2019-05-07T15:15:02.460Z,7.37
2019-05-07T15:17:49.537Z,5.20
2019-05-07T15:20:18.842Z,6.80
2019-05-07T15:23:05.534Z,6.70
2019-05-07T15:25:34.900Z,7.00
2019-05-07T15:28:04.262Z,5.67
2019-05-07T15:30:42.329Z,6.97
2019-05-07T15:33:12.724Z,6.23
2019-05-07T15:35:42.549Z,6.03
2019-05-07T15:38:11.880Z,6.60
2019-05-07T15:40:42.511Z,5.70
2019-05-07T15:43:13.503Z,6.27
2019-05-07T15:45:42.884Z,6.00
2019-05-07T15:48:12.660Z,5.97
2019-05-07T15:50:42.902Z,5.83
2019-05-07T15:53:21.861Z,4.97
2019-05-07T15:55:52.278Z,6.70
2019-05-07T15:58:22.687Z,5.43
2019-05-07T16:00:52.139Z,4.17
2019-05-07T16:03:26.350Z,6.40
2019-05-07T16:05:55.804Z,6.27
2019-05-07T16:08:26.849Z,5.60
2019-05-07T16:10:56.194Z,5.00
2019-05-07T16:13:29.377Z,6.83
2019-05-07T16:15:58.649Z,6.50
2019-05-07T16:18:33.412Z,6.27
2019-05-07T16:21:04.939Z,5.83
2019-05-07T16:23:33.947Z,7.33
2019-05-07T16:26:05.314Z,5.93
2019-05-07T16:28:34.343Z,7.23
2019-05-07T16:31:03.641Z,7.40
2019-05-07T16:33:34.803Z,6.00
2019-05-07T16:36:03.938Z,6.80
2019-05-07T16:38:33.529Z,7.07
2019-05-07T16:41:03.082Z,5.87
2019-05-07T16:43:32.387Z,5.77
2019-05-07T16:46:02.457Z,5.27
2019-05-07T16:48:32.733Z,6.20
2019-05-07T16:51:03.925Z,6.70
2019-05-07T16:53:35.346Z,6.30
2019-05-07T16:56:04.748Z,5.70
2019-05-07T16:58:44.563Z,5.40
2019-05-07T17:01:14.105Z,5.80
2019-05-07T17:03:47.821Z,5.87
2019-05-07T17:06:17.120Z,6.03
2019-05-07T17:09:18.581Z,6.83
2019-05-07T17:11:47.896Z,5.17
2019-05-07T17:14:18.472Z,5.60
2019-05-07T17:16:47.841Z,5.30
2019-05-07T17:19:18.949Z,5.77
2019-05-07T17:21:48.281Z,5.70
2019-05-07T17:24:17.862Z,6.20
2019-05-07T17:26:47.162Z,6.60
2019-05-07T17:29:16.365Z,5.87
2019-05-07T17:31:47.623Z,5.63
2019-05-07T17:35:34.308Z,4.80
2019-05-07T17:36:53.469Z,5.70
2019-05-07T17:39:22.883Z,5.57
2019-05-07T17:42:56.080Z,5.83
2019-05-07T17:44:51.856Z,5.33
2019-05-07T17:47:21.907Z,7.13
2019-05-07T17:49:52.709Z,6.00
2019-05-07T17:52:22.721Z,6.03
2019-05-07T17:54:52.775Z,5.17
2019-05-07T17:57:22.781Z,5.20
2019-05-07T17:59:52.584Z,5.40
2019-05-07T18:02:32.781Z,5.83
2019-05-07T18:05:02.941Z,4.70
2019-05-07T18:07:36.773Z,5.43
2019-05-07T18:10:06.493Z,6.00
2019-05-07T18:12:37.941Z,4.83
2019-05-07T18:15:07.920Z,6.47
2019-05-07T18:17:56.353Z,7.10
2019-05-07T18:20:25.883Z,7.97
2019-05-07T18:23:02.633Z,7.73
2019-05-07T18:25:34.863Z,7.93
2019-05-07T18:28:05.545Z,6.80
2019-05-07T18:30:36.854Z,7.03
2019-05-07T18:33:42.047Z,6.20
2019-05-07T18:36:12.119Z,5.70
2019-05-07T18:38:43.097Z,6.83
2019-05-07T18:41:14.765Z,7.57
2019-05-07T18:43:44.176Z,5.97
2019-05-07T18:46:13.553Z,6.60
2019-05-07T18:48:44.117Z,6.30
2019-05-07T18:51:13.692Z,6.20
2019-05-07T18:53:43.467Z,5.47
2019-05-07T18:56:13.037Z,6.80
2019-05-07T18:58:42.748Z,6.70
2019-05-07T19:01:13.136Z,6.10
2019-05-07T19:03:42.416Z,6.07
2019-05-07T19:06:14.622Z,5.20
2019-05-07T19:08:44.026Z,5.77
2019-05-07T19:11:13.550Z,6.00
2019-05-07T19:13:42.973Z,6.57
2019-05-07T19:16:12.765Z,4.67
2019-05-07T19:18:43.314Z,5.50
2019-05-07T19:21:12.688Z,5.70
2019-05-07T19:23:42.487Z,5.67
2019-05-07T19:26:13.103Z,5.80
2019-05-07T19:28:42.632Z,5.97
2019-05-07T19:31:12.538Z,4.80
2019-05-07T19:33:42.335Z,6.53
2019-05-07T19:36:11.833Z,4.73
2019-05-07T19:38:42.048Z,6.80
2019-05-07T19:41:12.299Z,6.43
2019-05-07T19:43:42.067Z,6.03
2019-05-07T19:46:12.480Z,6.23
2019-05-07T19:48:43.903Z,6.77
2019-05-07T19:51:13.185Z,6.30
2019-05-07T19:53:42.720Z,6.23
2019-05-07T19:56:23.287Z,6.40
2019-05-07T19:59:07.723Z,6.67
2019-05-07T20:01:44.100Z,6.20
2019-05-07T20:04:19.089Z,5.43
2019-05-07T20:06:48.356Z,7.93
2019-05-07T20:09:28.362Z,7.40
2019-05-07T20:11:58.723Z,7.30
2019-05-07T20:14:32.597Z,7.10
2019-05-07T20:17:06.586Z,6.60
2019-05-07T20:19:36.013Z,6.90
2019-05-07T20:22:05.337Z,7.37
2019-05-07T20:24:35.055Z,8.13
2019-05-07T20:27:04.468Z,7.03
2019-05-07T20:29:33.780Z,7.33
2019-05-07T20:32:03.370Z,6.90
2019-05-07T20:34:33.330Z,7.50
2019-05-07T20:37:02.821Z,7.67
2019-05-07T20:39:32.370Z,7.13
2019-05-07T20:42:03.067Z,7.10
2019-05-07T20:44:32.671Z,7.10
2019-05-07T20:47:02.040Z,7.13
2019-05-07T20:49:32.013Z,6.67
2019-05-07T20:52:01.503Z,6.60
2019-05-07T20:54:45.327Z,7.77
2019-05-07T20:57:23.875Z,7.30
2019-05-07T20:59:53.182Z,6.90
2019-05-07T21:02:22.835Z,6.40
2019-05-07T21:04:54.552Z,6.73
2019-05-07T21:07:23.930Z,6.50
2019-05-07T21:09:53.292Z,6.93
2019-05-07T21:12:22.752Z,7.57
2019-05-07T21:14:52.548Z,7.40
2019-05-07T21:17:22.802Z,7.20
2019-05-07T21:19:52.227Z,6.53
2019-05-07T21:22:22.612Z,7.10
2019-05-07T21:24:53.275Z,6.90
2019-05-07T21:27:22.759Z,6.00
2019-05-07T21:29:53.681Z,6.50
2019-05-07T21:32:24.312Z,6.73
2019-05-07T21:34:53.664Z,6.63
2019-05-07T21:37:23.114Z,7.00
2019-05-07T21:39:53.184Z,5.90
2019-05-07T21:42:22.993Z,6.63
2019-05-07T21:44:52.904Z,6.60
2019-05-07T21:47:22.466Z,6.53
2019-05-07T21:49:54.879Z,7.50
2019-05-07T21:52:24.041Z,5.83
2019-05-07T21:54:59.583Z,6.70
2019-05-07T21:57:39.467Z,7.03
2019-05-07T22:00:23.140Z,6.60
2019-05-07T22:02:52.765Z,6.20
2019-05-07T22:05:22.482Z,6.00
2019-05-07T22:07:54.205Z,6.50
2019-05-07T22:10:23.302Z,7.10
2019-05-07T22:12:54.669Z,7.20
2019-05-07T22:15:23.518Z,6.87
2019-05-07T22:17:52.837Z,7.00
2019-05-07T22:20:22.144Z,8.03
2019-05-07T22:22:52.164Z,6.13
2019-05-07T22:25:22.186Z,7.50
2019-05-07T22:27:52.968Z,6.00
2019-05-07T22:30:29.032Z,7.00
2019-05-07T22:33:06.051Z,6.57
2019-05-07T22:35:38.641Z,8.20
2019-05-07T22:38:07.976Z,6.37
2019-05-07T22:40:37.233Z,6.57
2019-05-07T22:43:06.569Z,6.57
2019-05-07T22:45:35.895Z,6.80
2019-05-07T22:48:05.182Z,5.80
2019-05-07T22:50:34.435Z,6.17
2019-05-07T22:53:03.740Z,6.33
2019-05-07T22:55:33.049Z,6.23
2019-05-07T22:58:12.337Z,5.67
2019-05-07T23:00:48.728Z,5.07
2019-05-07T23:03:18.078Z,5.93
2019-05-07T23:05:47.384Z,5.63
2019-05-07T23:08:16.690Z,4.90
2019-05-07T23:10:45.951Z,5.13
2019-05-07T23:13:15.269Z,5.03
2019-05-07T23:15:44.545Z,5.30
2019-05-07T23:18:13.757Z,5.17
2019-05-07T23:20:43.409Z,6.00
2019-05-07T23:23:14.201Z,5.30
2019-05-07T23:25:43.653Z,5.40
2019-05-07T23:28:12.934Z,4.70
2019-05-07T23:30:44.287Z,4.93
2019-05-07T23:33:13.474Z,4.40
2019-05-07T23:35:42.790Z,5.27
2019-05-07T23:38:15.627Z,5.47
2019-05-07T23:41:02.142Z,5.40
2019-05-07T23:43:31.890Z,5.37
2019-05-07T23:46:02.189Z,6.70
2019-05-07T23:48:32.236Z,5.13
2019-05-07T23:51:02.209Z,5.30
2019-05-07T23:53:31.591Z,5.30
2019-05-07T23:56:02.845Z,5.07
2019-05-07T23:58:32.673Z,5.57
